createdAt,value
2018-08-27T00:00:28.022Z,946.28
2018-08-27T00:01:28.013Z,946.30
2018-08-27T00:02:28.047Z,946.31
2018-08-27T00:03:49.015Z,946.29
2018-08-27T00:04:28.021Z,946.30
2018-08-27T00:05:27.992Z,946.28
2018-08-27T00:06:27.988Z,946.29
2018-08-27T00:07:27.983Z,946.31
2018-08-27T00:08:27.979Z,946.31
2018-08-27T00:09:48.984Z,946.30
2018-08-27T00:10:27.966Z,946.28
2018-08-27T00:11:27.973Z,946.37
2018-08-27T00:12:27.961Z,946.38
2018-08-27T00:13:27.957Z,946.38
2018-08-27T00:14:27.944Z,946.41
2018-08-27T00:15:48.953Z,946.41
2018-08-27T00:16:27.934Z,946.37
2018-08-27T00:17:27.929Z,946.30
2018-08-27T00:18:27.929Z,946.29
2018-08-27T00:19:27.919Z,946.29
2018-08-27T00:20:27.913Z,946.27
2018-08-27T00:21:48.919Z,946.28
2018-08-27T00:22:27.904Z,946.29
2018-08-27T00:23:27.900Z,946.28
2018-08-27T00:24:27.898Z,946.26
2018-08-27T00:25:27.922Z,946.28
2018-08-27T00:26:27.880Z,946.26
2018-08-27T00:27:48.888Z,946.22
2018-08-27T00:28:27.876Z,946.26
2018-08-27T00:29:27.868Z,946.25
2018-08-27T00:30:27.858Z,946.29
2018-08-27T00:31:27.854Z,946.29
2018-08-27T00:32:27.851Z,946.27
2018-08-27T00:33:48.902Z,946.35
2018-08-27T00:34:27.839Z,946.31
2018-08-27T00:35:27.846Z,946.32
2018-08-27T00:36:27.827Z,946.35
2018-08-27T00:37:27.825Z,946.35
2018-08-27T00:38:27.821Z,946.33
2018-08-27T00:39:48.821Z,946.31
2018-08-27T00:40:27.808Z,946.35
2018-08-27T00:41:27.800Z,946.38
2018-08-27T00:42:27.804Z,946.40
2018-08-27T00:43:27.795Z,946.35
2018-08-27T00:44:27.806Z,946.40
2018-08-27T00:45:48.789Z,946.30
2018-08-27T00:46:27.789Z,946.30
2018-08-27T00:47:27.769Z,946.30
2018-08-27T00:48:27.763Z,946.31
2018-08-27T00:49:27.762Z,946.29
2018-08-27T00:50:27.755Z,946.29
2018-08-27T00:51:48.809Z,946.30
2018-08-27T00:52:27.823Z,946.33
2018-08-27T00:53:27.739Z,946.35
2018-08-27T00:54:27.733Z,946.35
2018-08-27T00:55:27.731Z,946.35
2018-08-27T00:56:27.723Z,946.37
2018-08-27T00:57:48.723Z,946.38
2018-08-27T00:58:27.717Z,946.38
2018-08-27T00:59:27.709Z,946.42
2018-08-27T01:00:27.703Z,946.39
2018-08-27T01:01:27.730Z,946.39
2018-08-27T01:02:27.691Z,946.39
2018-08-27T01:03:48.791Z,946.36
2018-08-27T01:04:27.680Z,946.36
2018-08-27T01:05:27.677Z,946.36
2018-08-27T01:06:27.672Z,946.33
2018-08-27T01:07:27.663Z,946.37
2018-08-27T01:08:27.658Z,946.34
2018-08-27T01:09:48.662Z,946.33
2018-08-27T01:10:27.653Z,946.29
2018-08-27T01:11:27.649Z,946.29
2018-08-27T01:12:27.641Z,946.29
2018-08-27T01:13:27.637Z,946.30
2018-08-27T01:14:27.628Z,946.32
2018-08-27T01:15:48.628Z,946.31
2018-08-27T01:16:27.636Z,946.35
2018-08-27T01:17:27.615Z,946.34
2018-08-27T01:18:27.606Z,946.34
2018-08-27T01:19:27.602Z,946.30
2018-08-27T01:20:27.594Z,946.30
2018-08-27T01:21:48.598Z,946.31
2018-08-27T01:22:27.653Z,946.30
2018-08-27T01:23:27.589Z,946.31
2018-08-27T01:24:27.575Z,946.33
2018-08-27T01:25:27.573Z,946.37
2018-08-27T01:26:27.567Z,946.35
2018-08-27T01:27:48.566Z,946.37
2018-08-27T01:28:27.556Z,946.39
2018-08-27T01:29:27.558Z,946.33
2018-08-27T01:30:27.545Z,946.38
2018-08-27T02:04:09.032Z,946.39
2018-08-27T02:05:09.001Z,946.40
2018-08-27T02:07:01.965Z,946.36
2018-08-27T02:08:01.954Z,946.36
2018-08-27T02:09:55.037Z,946.43
2018-08-27T02:10:55.008Z,946.40
2018-08-27T02:12:47.969Z,946.40
2018-08-27T02:13:47.931Z,946.42
2018-08-27T02:15:40.832Z,946.37
2018-08-27T02:16:40.818Z,946.37
2018-08-27T02:18:33.827Z,946.41
2018-08-27T02:19:33.788Z,946.40
2018-08-27T02:21:26.723Z,946.45
2018-08-27T02:22:26.712Z,946.43
2018-08-27T02:24:19.706Z,946.47
2018-08-27T02:25:19.682Z,946.44
2018-08-27T02:27:12.661Z,946.43
2018-08-27T02:28:12.636Z,946.43
2018-08-27T02:30:05.616Z,946.39
2018-08-27T02:31:05.599Z,946.37
2018-08-27T02:32:58.520Z,946.43
2018-08-27T02:33:58.516Z,946.45
2018-08-27T02:35:51.413Z,946.47
2018-08-27T02:36:51.395Z,946.45
2018-08-27T02:38:44.386Z,946.44
2018-08-27T02:39:44.354Z,946.45
2018-08-27T02:41:37.323Z,946.46
2018-08-27T02:42:37.302Z,946.46
2018-08-27T02:44:30.275Z,946.40
2018-08-27T02:45:30.257Z,946.38
2018-08-27T02:46:30.250Z,946.33
2018-08-27T02:47:30.250Z,946.34
2018-08-27T02:48:30.266Z,946.33
2018-08-27T02:49:30.245Z,946.34
2018-08-27T02:50:30.249Z,946.34
2018-08-27T02:51:30.231Z,946.33
2018-08-27T02:52:30.231Z,946.33
2018-08-27T02:53:30.239Z,946.32
2018-08-27T02:54:30.222Z,946.29
2018-08-27T02:55:30.251Z,946.31
2018-08-27T02:56:30.210Z,946.34
2018-08-27T02:57:30.209Z,946.33
2018-08-27T02:58:30.204Z,946.35
2018-08-27T02:59:30.200Z,946.34
2018-08-27T03:00:30.202Z,946.33
2018-08-27T03:01:30.195Z,946.41
2018-08-27T03:02:30.191Z,946.38
2018-08-27T03:03:30.184Z,946.42
2018-08-27T03:04:30.182Z,946.40
2018-08-27T03:05:30.176Z,946.41
2018-08-27T03:06:30.173Z,946.42
2018-08-27T03:07:30.169Z,946.40
2018-08-27T03:08:30.160Z,946.43
2018-08-27T03:09:30.161Z,946.42
2018-08-27T03:10:30.158Z,946.40
2018-08-27T03:11:30.151Z,946.42
2018-08-27T03:12:30.152Z,946.42
2018-08-27T03:13:30.157Z,946.38
2018-08-27T03:14:30.142Z,946.39
2018-08-27T03:15:30.140Z,946.40
2018-08-27T03:16:30.130Z,946.40
2018-08-27T03:17:30.124Z,946.43
2018-08-27T03:18:30.192Z,946.43
2018-08-27T03:19:30.125Z,946.44
2018-08-27T03:20:30.118Z,946.45
2018-08-27T03:21:30.131Z,946.41
2018-08-27T03:22:30.107Z,946.40
2018-08-27T03:23:30.104Z,946.38
2018-08-27T03:24:30.103Z,946.39
2018-08-27T03:25:30.098Z,946.37
2018-08-27T03:26:30.092Z,946.38
2018-08-27T03:27:30.089Z,946.37
2018-08-27T03:28:30.098Z,946.39
2018-08-27T03:29:30.078Z,946.37
2018-08-27T03:30:30.075Z,946.34
2018-08-27T03:31:30.074Z,946.32
2018-08-27T03:32:30.068Z,946.34
2018-08-27T03:33:30.062Z,946.33
2018-08-27T03:34:30.062Z,946.33
2018-08-27T03:35:30.055Z,946.35
2018-08-27T03:36:30.047Z,946.31
2018-08-27T03:37:30.048Z,946.34
2018-08-27T03:38:30.046Z,946.30
2018-08-27T03:39:30.054Z,946.33
2018-08-27T03:40:30.073Z,946.33
2018-08-27T03:41:30.030Z,946.36
2018-08-27T03:42:30.027Z,946.33
2018-08-27T03:43:30.025Z,946.35
2018-08-27T03:44:30.031Z,946.32
2018-08-27T03:45:30.024Z,946.33
2018-08-27T03:46:30.013Z,946.28
2018-08-27T03:47:30.011Z,946.32
2018-08-27T03:48:30.029Z,946.27
2018-08-27T03:49:29.997Z,946.30
2018-08-27T03:50:29.997Z,946.27
2018-08-27T03:51:29.992Z,946.32
2018-08-27T03:52:29.988Z,946.33
2018-08-27T03:53:29.986Z,946.35
2018-08-27T03:54:29.981Z,946.33
2018-08-27T03:55:29.974Z,946.38
2018-08-27T03:56:29.967Z,946.36
2018-08-27T03:57:29.965Z,946.41
2018-08-27T03:58:29.963Z,946.41
2018-08-27T03:59:29.958Z,946.44
2018-08-27T04:00:29.952Z,946.42
2018-08-27T04:01:29.951Z,946.39
2018-08-27T04:02:29.944Z,946.39
2018-08-27T04:03:29.942Z,946.33
2018-08-27T04:04:29.941Z,946.31
2018-08-27T04:05:29.934Z,946.32
2018-08-27T04:06:29.930Z,946.31
2018-08-27T04:07:29.927Z,946.37
2018-08-27T04:08:29.922Z,946.33
2018-08-27T04:09:29.919Z,946.35
2018-08-27T04:10:29.916Z,946.33
2018-08-27T04:11:29.908Z,946.31
2018-08-27T04:12:29.902Z,946.33
2018-08-27T04:13:29.905Z,946.35
2018-08-27T04:14:29.896Z,946.39
2018-08-27T04:15:29.891Z,946.40
2018-08-27T04:16:29.889Z,946.44
2018-08-27T04:17:29.884Z,946.45
2018-08-27T04:18:29.880Z,946.49
2018-08-27T04:19:29.876Z,946.49
2018-08-27T04:20:29.872Z,946.53
2018-08-27T04:21:29.868Z,946.49
2018-08-27T04:22:29.862Z,946.53
2018-08-27T04:23:29.852Z,946.49
2018-08-27T04:24:29.854Z,946.48
2018-08-27T04:25:29.851Z,946.43
2018-08-27T04:26:29.849Z,946.43
2018-08-27T04:27:29.855Z,946.41
2018-08-27T04:28:29.837Z,946.40
2018-08-27T04:29:29.838Z,946.38
2018-08-27T04:30:29.832Z,946.43
2018-08-27T04:31:29.826Z,946.45
2018-08-27T04:32:29.822Z,946.46
2018-08-27T04:33:29.822Z,946.46
2018-08-27T04:34:29.816Z,946.46
2018-08-27T04:35:29.818Z,946.50
2018-08-27T04:36:29.804Z,946.50
2018-08-27T04:37:29.802Z,946.57
2018-08-27T04:38:29.800Z,946.54
2018-08-27T04:39:29.792Z,946.60
2018-08-27T04:40:29.794Z,946.62
2018-08-27T04:41:29.786Z,946.58
2018-08-27T04:42:29.825Z,946.61
2018-08-27T04:43:29.775Z,946.63
2018-08-27T04:44:29.778Z,946.62
2018-08-27T04:45:29.768Z,946.62
2018-08-27T04:46:29.768Z,946.64
2018-08-27T04:47:29.759Z,946.64
2018-08-27T04:48:29.798Z,946.65
2018-08-27T04:49:29.758Z,946.63
2018-08-27T04:50:29.751Z,946.65
2018-08-27T04:51:29.751Z,946.66
2018-08-27T04:52:29.738Z,946.63
2018-08-27T04:53:29.738Z,946.65
2018-08-27T04:54:29.724Z,946.62
2018-08-27T04:55:29.727Z,946.64
2018-08-27T04:56:29.734Z,946.70
2018-08-27T04:57:29.722Z,946.69
2018-08-27T04:58:29.721Z,946.73
2018-08-27T04:59:29.731Z,946.74
2018-08-27T05:00:29.743Z,946.75
2018-08-27T05:01:29.701Z,946.72
2018-08-27T05:02:29.709Z,946.71
2018-08-27T05:03:29.697Z,946.67
2018-08-27T05:04:29.697Z,946.69
2018-08-27T05:05:29.688Z,946.69
2018-08-27T05:06:29.684Z,946.66
2018-08-27T05:07:29.699Z,946.66
2018-08-27T05:08:29.678Z,946.65
2018-08-27T05:09:29.673Z,946.70
2018-08-27T05:10:29.668Z,946.71
2018-08-27T05:11:29.666Z,946.78
2018-08-27T05:12:29.659Z,946.71
2018-08-27T05:13:29.659Z,946.72
2018-08-27T05:14:29.653Z,946.71
2018-08-27T05:15:29.657Z,946.77
2018-08-27T05:16:29.644Z,946.74
2018-08-27T05:17:29.640Z,946.76
2018-08-27T05:18:29.638Z,946.75
2018-08-27T05:19:29.636Z,946.75
2018-08-27T05:20:29.633Z,946.74
2018-08-27T05:21:29.623Z,946.78
2018-08-27T05:22:29.623Z,946.74
2018-08-27T05:23:29.622Z,946.76
2018-08-27T05:24:29.640Z,946.75
2018-08-27T05:25:29.615Z,946.78
2018-08-27T05:26:29.609Z,946.77
2018-08-27T05:27:29.601Z,946.73
2018-08-27T05:28:29.595Z,946.76
2018-08-27T05:29:29.596Z,946.75
2018-08-27T05:30:29.616Z,946.75
2018-08-27T05:31:29.666Z,946.73
2018-08-27T05:32:29.585Z,946.73
2018-08-27T05:33:29.597Z,946.76
2018-08-27T05:34:29.576Z,946.78
2018-08-27T05:35:29.571Z,946.74
2018-08-27T05:36:29.564Z,946.80
2018-08-27T05:37:29.562Z,946.76
2018-08-27T05:38:29.607Z,946.81
2018-08-27T05:39:29.556Z,946.79
2018-08-27T05:40:29.552Z,946.83
2018-08-27T05:41:29.549Z,946.85
2018-08-27T05:42:29.542Z,946.84
2018-08-27T05:43:29.539Z,946.86
2018-08-27T05:44:29.569Z,946.86
2018-08-27T05:45:29.534Z,946.87
2018-08-27T05:46:29.526Z,946.85
2018-08-27T05:47:29.532Z,946.87
2018-08-27T05:48:29.519Z,946.86
2018-08-27T05:49:29.518Z,946.84
2018-08-27T05:50:29.516Z,946.82
2018-08-27T05:51:29.513Z,946.82
2018-08-27T05:52:29.509Z,946.84
2018-08-27T05:53:29.502Z,946.80
2018-08-27T05:54:29.501Z,946.82
2018-08-27T05:55:29.495Z,946.80
2018-08-27T05:56:29.494Z,946.74
2018-08-27T05:57:29.489Z,946.73
2018-08-27T05:58:29.490Z,946.70
2018-08-27T05:59:29.482Z,946.71
2018-08-27T06:00:29.477Z,946.69
2018-08-27T06:01:29.551Z,946.69
2018-08-27T06:02:29.475Z,946.66
2018-08-27T06:03:29.473Z,946.67
2018-08-27T06:04:29.475Z,946.68
2018-08-27T06:05:29.464Z,946.72
2018-08-27T06:06:29.459Z,946.72
2018-08-27T06:07:29.452Z,946.70
2018-08-27T06:08:29.470Z,946.74
2018-08-27T06:09:29.451Z,946.75
2018-08-27T06:10:29.444Z,946.76
2018-08-27T06:11:29.444Z,946.76
2018-08-27T06:12:29.440Z,946.79
2018-08-27T06:13:29.433Z,946.79
2018-08-27T06:14:29.431Z,946.78
2018-08-27T06:15:29.426Z,946.82
2018-08-27T06:16:29.458Z,946.86
2018-08-27T06:17:29.422Z,946.86
2018-08-27T06:18:29.425Z,946.91
2018-08-27T06:19:29.417Z,946.86
2018-08-27T06:20:29.416Z,946.91
2018-08-27T06:21:29.408Z,946.86
2018-08-27T06:22:29.489Z,946.86
2018-08-27T06:23:29.405Z,946.93
2018-08-27T06:24:29.398Z,946.89
2018-08-27T06:25:29.402Z,946.85
2018-08-27T06:26:29.394Z,946.82
2018-08-27T06:27:29.386Z,946.83
2018-08-27T06:28:29.384Z,946.80
2018-08-27T06:29:29.383Z,946.87
2018-08-27T06:30:29.383Z,946.88
2018-08-27T06:31:29.374Z,946.87
2018-08-27T06:32:29.428Z,946.88
2018-08-27T06:33:29.370Z,946.91
2018-08-27T06:34:29.366Z,946.91
2018-08-27T06:35:29.363Z,946.95
2018-08-27T06:36:29.366Z,946.91
2018-08-27T06:37:29.354Z,946.87
2018-08-27T06:38:29.357Z,946.84
2018-08-27T06:39:29.365Z,946.84
2018-08-27T06:40:29.347Z,946.82
2018-08-27T06:41:29.348Z,946.83
2018-08-27T06:42:29.347Z,946.82
2018-08-27T06:43:29.341Z,946.86
2018-08-27T06:44:29.379Z,946.86
2018-08-27T06:45:29.344Z,946.90
2018-08-27T06:46:29.337Z,946.89
2018-08-27T06:47:29.333Z,946.93
2018-08-27T06:48:29.329Z,946.92
2018-08-27T06:49:29.328Z,947.01
2018-08-27T06:50:29.327Z,946.98
2018-08-27T06:51:29.321Z,947.00
2018-08-27T06:52:29.325Z,946.97
2018-08-27T06:53:29.321Z,947.00
2018-08-27T06:54:29.323Z,947.00
2018-08-27T06:55:29.324Z,947.00
2018-08-27T06:56:29.324Z,947.07
2018-08-27T06:57:29.319Z,947.07
2018-08-27T06:58:29.323Z,947.06
2018-08-27T06:59:29.316Z,947.06
2018-08-27T07:00:29.318Z,947.05
2018-08-27T07:01:29.325Z,947.06
2018-08-27T07:02:29.318Z,947.04
2018-08-27T07:03:29.321Z,947.05
2018-08-27T07:04:29.320Z,947.06
2018-08-27T07:05:29.326Z,947.05
2018-08-27T07:06:29.320Z,947.05
2018-08-27T07:07:29.373Z,947.03
2018-08-27T07:08:29.321Z,947.03
2018-08-27T07:09:29.320Z,947.04
2018-08-27T07:10:29.325Z,947.02
2018-08-27T07:11:29.321Z,947.03
2018-08-27T07:12:29.325Z,947.01
2018-08-27T07:13:29.329Z,947.01
2018-08-27T07:14:29.327Z,947.01
2018-08-27T07:15:29.379Z,947.01
2018-08-27T07:16:29.339Z,947.01
2018-08-27T07:17:29.332Z,947.02
2018-08-27T07:18:29.335Z,947.02
2018-08-27T07:19:29.330Z,947.03
2018-08-27T07:20:29.337Z,947.04
2018-08-27T07:21:29.339Z,947.05
2018-08-27T07:22:29.361Z,947.04
2018-08-27T07:23:29.342Z,947.04
2018-08-27T07:24:29.347Z,947.05
2018-08-27T07:25:29.347Z,947.04
2018-08-27T07:26:29.350Z,947.09
2018-08-27T07:27:29.443Z,947.04
2018-08-27T07:28:29.351Z,947.01
2018-08-27T07:29:29.353Z,947.03
2018-08-27T07:30:29.357Z,947.04
2018-08-27T07:31:29.366Z,947.04
2018-08-27T07:32:29.370Z,947.04
2018-08-27T07:33:29.361Z,947.07
2018-08-27T07:34:29.382Z,947.07
2018-08-27T07:35:29.422Z,947.08
2018-08-27T07:36:29.394Z,947.05
2018-08-27T07:37:29.381Z,947.04
2018-08-27T07:38:29.391Z,947.16
2018-08-27T07:39:29.379Z,947.14
2018-08-27T07:40:29.383Z,947.17
2018-08-27T07:41:29.395Z,947.12
2018-08-27T07:42:29.391Z,947.09
2018-08-27T07:43:29.454Z,947.10
2018-08-27T07:44:29.398Z,947.11
2018-08-27T07:45:29.404Z,947.15
2018-08-27T07:46:29.405Z,947.10
2018-08-27T07:47:29.409Z,947.22
2018-08-27T07:48:29.413Z,947.21
2018-08-27T07:49:29.418Z,947.24
2018-08-27T07:50:29.467Z,947.26
2018-08-27T07:51:29.429Z,947.29
2018-08-27T07:52:29.450Z,947.29
2018-08-27T07:53:29.440Z,947.26
2018-08-27T07:54:29.447Z,947.24
2018-08-27T07:55:29.445Z,947.25
2018-08-27T07:56:29.450Z,947.24
2018-08-27T07:57:29.556Z,947.21
2018-08-27T07:58:29.486Z,947.27
2018-08-27T07:59:29.470Z,947.25
2018-08-27T08:00:29.516Z,947.32
2018-08-27T08:01:29.489Z,947.29
2018-08-27T08:02:29.485Z,947.36
2018-08-27T08:03:29.486Z,947.38
2018-08-27T08:04:29.564Z,947.36
2018-08-27T08:05:29.500Z,947.38
2018-08-27T08:06:29.507Z,947.35
2018-08-27T08:07:29.513Z,947.35
2018-08-27T08:08:29.630Z,947.35
2018-08-27T08:09:29.516Z,947.37
2018-08-27T08:10:29.528Z,947.37
2018-08-27T08:11:29.533Z,947.46
2018-08-27T08:12:29.549Z,947.40
2018-08-27T08:13:29.538Z,947.47
2018-08-27T08:14:29.552Z,947.46
2018-08-27T08:15:29.560Z,947.45
2018-08-27T08:16:29.587Z,947.49
2018-08-27T08:17:29.574Z,947.52
2018-08-27T08:18:29.585Z,947.44
2018-08-27T08:19:29.642Z,947.45
2018-08-27T08:20:29.604Z,947.46
2018-08-27T08:21:29.620Z,947.48
2018-08-27T08:22:29.624Z,947.47
2018-08-27T08:23:29.638Z,947.57
2018-08-27T08:24:29.642Z,947.56
2018-08-27T08:25:29.650Z,947.50
2018-08-27T08:26:29.656Z,947.60
2018-08-27T08:27:29.667Z,947.55
2018-08-27T08:28:29.671Z,947.64
2018-08-27T08:29:29.753Z,947.63
2018-08-27T08:30:29.697Z,947.60
2018-08-27T08:31:29.755Z,947.65
2018-08-27T08:32:29.719Z,947.65
2018-08-27T08:33:29.749Z,947.64
2018-08-27T08:34:29.735Z,947.60
2018-08-27T08:35:29.759Z,947.61
2018-08-27T08:36:29.758Z,947.57
2018-08-27T08:37:29.780Z,947.64
2018-08-27T08:38:29.795Z,947.66
2018-08-27T08:39:29.792Z,947.64
2018-08-27T08:40:29.806Z,947.60
2018-08-27T08:41:29.815Z,947.61
2018-08-27T08:42:29.828Z,947.60
2018-08-27T08:43:29.838Z,947.58
2018-08-27T08:44:29.847Z,947.57
2018-08-27T08:45:29.862Z,947.55
2018-08-27T08:46:29.865Z,947.59
2018-08-27T08:47:29.895Z,947.61
2018-08-27T08:48:29.899Z,947.56
2018-08-27T08:49:29.921Z,947.57
2018-08-27T08:50:29.936Z,947.61
2018-08-27T08:51:29.942Z,947.61
2018-08-27T08:52:29.958Z,947.63
2018-08-27T08:53:29.974Z,947.57
2018-08-27T08:54:29.981Z,947.59
2018-08-27T08:55:29.997Z,947.59
2018-08-27T08:56:30.006Z,947.59
2018-08-27T08:57:30.035Z,947.62
2018-08-27T08:58:30.038Z,947.60
2018-08-27T08:59:30.049Z,947.56
2018-08-27T09:00:30.068Z,947.59
2018-08-27T09:01:30.139Z,947.62
2018-08-27T09:02:30.093Z,947.57
2018-08-27T09:03:30.102Z,947.64
2018-08-27T09:04:30.121Z,947.65
2018-08-27T09:05:30.143Z,947.58
2018-08-27T09:06:30.237Z,947.61
2018-08-27T09:07:30.163Z,947.56
2018-08-27T09:08:30.199Z,947.54
2018-08-27T09:09:30.207Z,947.56
2018-08-27T09:10:30.226Z,947.55
2018-08-27T09:11:30.232Z,947.53
2018-08-27T09:12:30.269Z,947.53
2018-08-27T09:13:30.277Z,947.53
2018-08-27T09:14:30.279Z,947.52
2018-08-27T09:15:30.302Z,947.55
2018-08-27T09:16:30.320Z,947.51
2018-08-27T09:17:30.384Z,947.52
2018-08-27T09:18:30.378Z,947.58
2018-08-27T09:19:30.392Z,947.50
2018-08-27T09:20:31.266Z,947.49
2018-08-27T09:21:30.377Z,947.46
2018-08-27T09:22:30.404Z,947.49
2018-08-27T09:23:30.457Z,947.54
2018-08-27T09:24:30.419Z,947.50
2018-08-27T09:25:30.464Z,947.52
2018-08-27T09:26:30.461Z,947.48
2018-08-27T09:27:30.469Z,947.51
2018-08-27T09:28:30.485Z,947.48
2018-08-27T09:29:30.516Z,947.50
2018-08-27T09:30:30.520Z,947.47
2018-08-27T09:31:30.611Z,947.48
2018-08-27T09:32:30.543Z,947.52
2018-08-27T09:33:30.556Z,947.48
2018-08-27T09:34:30.570Z,947.46
2018-08-27T09:35:30.583Z,947.45
2018-08-27T09:36:30.603Z,947.45
2018-08-27T09:37:30.616Z,947.41
2018-08-27T09:38:30.639Z,947.43
2018-08-27T09:39:30.646Z,947.43
2018-08-27T09:40:30.655Z,947.45
2018-08-27T09:41:30.697Z,947.45
2018-08-27T09:42:30.720Z,947.39
2018-08-27T09:43:30.749Z,947.44
2018-08-27T09:44:30.755Z,947.39
2018-08-27T09:45:30.762Z,947.42
2018-08-27T09:46:30.767Z,947.37
2018-08-27T09:47:30.776Z,947.38
2018-08-27T09:48:30.812Z,947.43
2018-08-27T09:49:30.823Z,947.47
2018-08-27T09:50:30.812Z,947.49
2018-08-27T09:51:30.830Z,947.47
2018-08-27T09:52:30.844Z,947.44
2018-08-27T09:53:30.862Z,947.43
2018-08-27T09:54:30.874Z,947.38
2018-08-27T09:55:30.894Z,947.50
2018-08-27T09:56:30.906Z,947.45
2018-08-27T09:57:30.922Z,947.42
2018-08-27T09:58:30.969Z,947.42
2018-08-27T09:59:30.950Z,947.46
2018-08-27T10:00:30.966Z,947.49
2018-08-27T10:01:30.983Z,947.51
2018-08-27T10:02:30.994Z,947.48
2018-08-27T10:03:31.020Z,947.46
2018-08-27T10:04:31.035Z,947.43
2018-08-27T10:05:31.102Z,947.41
2018-08-27T10:06:31.064Z,947.35
2018-08-27T10:07:31.067Z,947.38
2018-08-27T10:08:31.078Z,947.38
2018-08-27T10:09:31.098Z,947.32
2018-08-27T10:10:31.145Z,947.36
2018-08-27T10:11:31.756Z,947.36
2018-08-27T10:12:31.153Z,947.38
2018-08-27T10:13:31.152Z,947.33
2018-08-27T10:14:31.156Z,947.30
2018-08-27T10:15:31.167Z,947.33
2018-08-27T10:16:31.217Z,947.30
2018-08-27T10:17:31.219Z,947.31
2018-08-27T10:18:31.217Z,947.35
2018-08-27T10:19:31.221Z,947.32
2018-08-27T10:20:31.228Z,947.44
2018-08-27T10:21:31.238Z,947.35
2018-08-27T10:22:31.326Z,947.38
2018-08-27T10:23:31.270Z,947.38
2018-08-27T10:24:31.276Z,947.39
2018-08-27T10:25:31.296Z,947.39
2018-08-27T10:26:31.390Z,947.31
2018-08-27T10:27:31.311Z,947.34
2018-08-27T10:28:31.323Z,947.36
2018-08-27T10:29:31.342Z,947.34
2018-08-27T10:30:31.345Z,947.37
2018-08-27T10:31:31.378Z,947.36
2018-08-27T10:32:31.368Z,947.33
2018-08-27T10:33:31.389Z,947.33
2018-08-27T10:34:31.386Z,947.36
2018-08-27T10:35:31.400Z,947.36
2018-08-27T10:36:31.441Z,947.34
2018-08-27T10:37:31.414Z,947.34
2018-08-27T10:38:31.424Z,947.28
2018-08-27T10:39:31.434Z,947.29
2018-08-27T10:40:31.449Z,947.28
2018-08-27T10:41:31.454Z,947.30
2018-08-27T10:42:31.468Z,947.30
2018-08-27T10:43:31.475Z,947.26
2018-08-27T10:44:31.482Z,947.32
2018-08-27T10:45:31.576Z,947.31
2018-08-27T10:46:31.499Z,947.31
2018-08-27T10:47:31.504Z,947.36
2018-08-27T10:48:31.519Z,947.36
2018-08-27T10:49:31.521Z,947.32
2018-08-27T10:50:31.540Z,947.35
2018-08-27T10:51:31.540Z,947.33
2018-08-27T10:52:31.550Z,947.35
2018-08-27T10:53:31.560Z,947.32
2018-08-27T10:54:31.571Z,947.35
2018-08-27T10:55:31.582Z,947.31
2018-08-27T10:56:31.592Z,947.32
2018-08-27T10:57:31.595Z,947.34
2018-08-27T10:58:31.690Z,947.34
2018-08-27T10:59:31.614Z,947.34
2018-08-27T11:00:31.626Z,947.35
2018-08-27T11:01:31.627Z,947.37
2018-08-27T11:02:31.644Z,947.32
2018-08-27T11:03:31.661Z,947.36
2018-08-27T11:04:31.660Z,947.36
2018-08-27T11:05:31.673Z,947.40
2018-08-27T11:06:31.680Z,947.36
2018-08-27T11:07:31.690Z,947.33
2018-08-27T11:08:31.720Z,947.38
2018-08-27T11:09:31.708Z,947.39
2018-08-27T11:10:31.753Z,947.36
2018-08-27T11:11:31.751Z,947.38
2018-08-27T11:12:31.748Z,947.37
2018-08-27T11:13:31.752Z,947.30
2018-08-27T11:14:31.765Z,947.42
2018-08-27T11:15:31.773Z,947.35
2018-08-27T11:16:31.785Z,947.37
2018-08-27T11:17:31.798Z,947.36
2018-08-27T11:18:31.809Z,947.39
2018-08-27T11:19:31.958Z,947.40
2018-08-27T11:20:32.019Z,947.39
2018-08-27T11:21:31.843Z,947.40
2018-08-27T11:22:31.859Z,947.43
2018-08-27T11:23:31.871Z,947.35
2018-08-27T11:24:31.882Z,947.40
2018-08-27T11:25:31.895Z,947.39
2018-08-27T11:26:32.065Z,947.38
2018-08-27T11:27:31.923Z,947.34
2018-08-27T11:28:31.938Z,947.29
2018-08-27T11:29:31.952Z,947.31
2018-08-27T11:30:31.966Z,947.25
2018-08-27T11:31:31.976Z,947.30
2018-08-27T11:32:31.991Z,947.31
2018-08-27T11:33:32.015Z,947.36
2018-08-27T11:34:32.020Z,947.39
2018-08-27T11:35:32.028Z,947.33
2018-08-27T11:36:32.061Z,947.34
2018-08-27T11:37:32.062Z,947.39
2018-08-27T11:38:32.083Z,947.31
2018-08-27T11:39:32.089Z,947.33
2018-08-27T11:40:32.095Z,947.30
2018-08-27T11:41:32.114Z,947.27
2018-08-27T11:42:32.124Z,947.26
2018-08-27T11:43:32.232Z,947.21
2018-08-27T11:44:32.210Z,947.24
2018-08-27T11:45:32.169Z,947.25
2018-08-27T11:46:32.266Z,947.23
2018-08-27T11:47:32.195Z,947.27
2018-08-27T11:48:32.216Z,947.23
2018-08-27T11:49:32.231Z,947.20
2018-08-27T11:50:32.290Z,947.22
2018-08-27T11:51:32.332Z,947.23
2018-08-27T11:52:32.313Z,947.21
2018-08-27T11:53:32.274Z,947.17
2018-08-27T11:54:32.304Z,947.16
2018-08-27T11:55:32.305Z,947.20
2018-08-27T11:56:32.341Z,947.30
2018-08-27T11:57:32.351Z,947.21
2018-08-27T11:58:32.346Z,947.17
2018-08-27T11:59:32.371Z,947.28
2018-08-27T12:00:32.356Z,947.23
2018-08-27T12:01:32.416Z,947.24
2018-08-27T12:02:32.384Z,947.14
2018-08-27T12:03:32.434Z,947.17
2018-08-27T12:04:32.426Z,947.15
2018-08-27T12:05:32.485Z,947.19
2018-08-27T12:06:32.492Z,947.22
2018-08-27T12:07:32.439Z,947.22
2018-08-27T12:08:32.458Z,947.14
2018-08-27T12:09:32.457Z,947.13
2018-08-27T12:10:32.472Z,947.16
2018-08-27T12:11:32.476Z,947.18
2018-08-27T12:12:32.490Z,947.22
2018-08-27T12:13:32.498Z,947.10
2018-08-27T12:14:32.541Z,947.16
2018-08-27T12:15:32.519Z,947.09
2018-08-27T12:16:32.523Z,947.12
2018-08-27T12:17:32.596Z,947.15
2018-08-27T12:18:32.561Z,947.13
2018-08-27T12:19:32.552Z,947.08
2018-08-27T12:20:32.557Z,947.07
2018-08-27T12:21:32.566Z,947.01
2018-08-27T12:22:32.583Z,947.11
2018-08-27T12:23:32.582Z,947.09
2018-08-27T12:24:32.594Z,947.09
2018-08-27T12:25:32.604Z,947.15
2018-08-27T12:26:32.609Z,947.10
2018-08-27T12:27:32.620Z,947.09
2018-08-27T12:28:32.673Z,947.11
2018-08-27T12:29:32.628Z,947.08
2018-08-27T12:30:32.683Z,947.08
2018-08-27T12:31:32.645Z,947.11
2018-08-27T12:32:32.654Z,947.08
2018-08-27T12:33:32.705Z,947.09
2018-08-27T12:34:32.662Z,947.07
2018-08-27T12:35:32.662Z,947.05
2018-08-27T12:36:32.678Z,947.05
2018-08-27T12:37:32.744Z,947.06
2018-08-27T12:38:32.686Z,947.02
2018-08-27T12:39:32.755Z,947.09
2018-08-27T12:40:32.760Z,947.08
2018-08-27T12:41:32.698Z,947.07
2018-08-27T12:42:32.709Z,947.06
2018-08-27T12:43:32.751Z,947.03
2018-08-27T12:44:32.716Z,947.00
2018-08-27T12:45:32.714Z,947.07
2018-08-27T12:46:32.741Z,947.02
2018-08-27T12:47:32.854Z,947.05
2018-08-27T12:48:32.773Z,947.00
2018-08-27T12:49:32.746Z,946.97
2018-08-27T12:50:32.750Z,947.01
2018-08-27T12:51:32.756Z,947.04
2018-08-27T12:52:32.831Z,946.95
2018-08-27T12:53:32.771Z,946.98
2018-08-27T12:54:32.767Z,946.99
2018-08-27T12:55:32.771Z,947.05
2018-08-27T12:56:32.777Z,947.08
2018-08-27T12:57:32.783Z,947.05
2018-08-27T12:58:32.861Z,947.06
2018-08-27T12:59:32.796Z,947.03
2018-08-27T13:00:32.794Z,947.07
2018-08-27T13:01:32.805Z,947.07
2018-08-27T13:02:32.893Z,947.04
2018-08-27T13:03:32.806Z,947.05
2018-08-27T13:04:32.823Z,947.02
2018-08-27T13:05:32.839Z,947.05
2018-08-27T13:06:32.824Z,947.03
2018-08-27T13:07:32.851Z,946.98
2018-08-27T13:08:32.824Z,946.99
2018-08-27T13:09:32.831Z,946.99
2018-08-27T13:10:32.841Z,946.98
2018-08-27T13:11:32.856Z,947.01
2018-08-27T13:12:32.953Z,947.00
2018-08-27T13:13:32.862Z,947.01